sensor_id;sensor_type;location;lat;lon;timestamp;temperature;humidity
38582;DHT22;24349;53.720;10.014;2023-02-28T00:01:02;4.60;99.90
38582;DHT22;24349;53.720;10.014;2023-02-28T00:03:28;4.60;99.90
38582;DHT22;24349;53.720;10.014;2023-02-28T00:05:53;4.60;99.90
38582;DHT22;24349;53.720;10.014;2023-02-28T00:08:19;4.70;99.90
38582;DHT22;24349;53.720;10.014;2023-02-28T00:10:45;4.70;99.90
38582;DHT22;24349;53.720;10.014;2023-02-28T00:13:10;4.70;99.90
38582;DHT22;24349;53.720;10.014;2023-02-28T00:15:36;4.60;99.90
38582;DHT22;24349;53.720;10.014;2023-02-28T00:18:02;4.60;99.90
38582;DHT22;24349;53.720;10.014;2023-02-28T00:20:28;4.60;99.90
38582;DHT22;24349;53.720;10.014;2023-02-28T00:22:55;4.60;99.90
38582;DHT22;24349;53.720;10.014;2023-02-28T00:25:25;4.60;99.90
38582;DHT22;24349;53.720;10.014;2023-02-28T00:27:51;4.50;99.90
38582;DHT22;24349;53.720;10.014;2023-02-28T00:30:18;4.30;99.90
38582;DHT22;24349;53.720;10.014;2023-02-28T00:32:45;4.20;99.90
38582;DHT22;24349;53.720;10.014;2023-02-28T00:35:11;4.00;99.90
38582;DHT22;24349;53.720;10.014;2023-02-28T00:37:37;3.80;99.90
38582;DHT22;24349;53.720;10.014;2023-02-28T00:40:04;3.80;99.90
38582;DHT22;24349;53.720;10.014;2023-02-28T00:42:31;3.80;99.90
38582;DHT22;24349;53.720;10.014;2023-02-28T00:44:57;3.70;99.90
38582;DHT22;24349;53.720;10.014;2023-02-28T00:47:22;3.50;99.90
38582;DHT22;24349;53.720;10.014;2023-02-28T00:49:48;3.50;99.90
38582;DHT22;24349;53.720;10.014;2023-02-28T00:52:13;3.30;99.90
38582;DHT22;24349;53.720;10.014;2023-02-28T00:54:39;3.20;99.90
38582;DHT22;24349;53.720;10.014;2023-02-28T00:57:04;3.20;99.90
38582;DHT22;24349;53.720;10.014;2023-02-28T00:59:30;3.20;99.90
38582;DHT22;24349;53.720;10.014;2023-02-28T01:01:56;3.20;99.90
38582;DHT22;24349;53.720;10.014;2023-02-28T01:04:22;3.40;99.90
38582;DHT22;24349;53.720;10.014;2023-02-28T01:06:47;3.50;99.90
38582;DHT22;24349;53.720;10.014;2023-02-28T01:09:13;3.60;99.90
38582;DHT22;24349;53.720;10.014;2023-02-28T01:11:39;3.50;99.90
38582;DHT22;24349;53.720;10.014;2023-02-28T01:14:07;3.50;99.90
38582;DHT22;24349;53.720;10.014;2023-02-28T01:16:32;3.40;99.90
38582;DHT22;24349;53.720;10.014;2023-02-28T01:18:58;3.40;99.90
38582;DHT22;24349;53.720;10.014;2023-02-28T01:21:24;3.40;99.90
38582;DHT22;24349;53.720;10.014;2023-02-28T01:23:50;3.50;99.90
38582;DHT22;24349;53.720;10.014;2023-02-28T01:26:21;3.40;99.90
38582;DHT22;24349;53.720;10.014;2023-02-28T01:28:49;3.40;99.90
38582;DHT22;24349;53.720;10.014;2023-02-28T01:31:15;3.50;99.90
38582;DHT22;24349;53.720;10.014;2023-02-28T01:33:41;3.50;99.90
38582;DHT22;24349;53.720;10.014;2023-02-28T01:36:11;3.60;99.90
38582;DHT22;24349;53.720;10.014;2023-02-28T01:38:37;3.70;99.90
38582;DHT22;24349;53.720;10.014;2023-02-28T01:41:03;3.80;99.90
38582;DHT22;24349;53.720;10.014;2023-02-28T01:43:32;3.70;99.90
38582;DHT22;24349;53.720;10.014;2023-02-28T01:46:17;3.70;99.90
38582;DHT22;24349;53.720;10.014;2023-02-28T01:48:53;3.70;99.90
38582;DHT22;24349;53.720;10.014;2023-02-28T01:51:27;3.70;99.90
38582;DHT22;24349;53.720;10.014;2023-02-28T01:54:02;3.70;99.90
38582;DHT22;24349;53.720;10.014;2023-02-28T01:56:32;3.70;99.90
38582;DHT22;24349;53.720;10.014;2023-02-28T01:58:58;3.70;99.90
38582;DHT22;24349;53.720;10.014;2023-02-28T02:01:25;3.50;99.90
38582;DHT22;24349;53.720;10.014;2023-02-28T02:03:55;3.30;99.90
38582;DHT22;24349;53.720;10.014;2023-02-28T02:06:35;3.10;99.90
38582;DHT22;24349;53.720;10.014;2023-02-28T02:09:02;2.90;99.90
38582;DHT22;24349;53.720;10.014;2023-02-28T02:11:28;3.00;99.90
38582;DHT22;24349;53.720;10.014;2023-02-28T02:14:18;3.00;99.90
38582;DHT22;24349;53.720;10.014;2023-02-28T02:18:08;3.00;99.90
38582;DHT22;24349;53.720;10.014;2023-02-28T02:20:35;3.00;99.90
38582;DHT22;24349;53.720;10.014;2023-02-28T02:23:18;2.90;99.90
38582;DHT22;24349;53.720;10.014;2023-02-28T02:25:56;2.90;99.90
38582;DHT22;24349;53.720;10.014;2023-02-28T02:34:01;2.90;99.90
38582;DHT22;24349;53.720;10.014;2023-02-28T02:36:35;2.90;99.90
38582;DHT22;24349;53.720;10.014;2023-02-28T02:39:28;2.90;99.90
38582;DHT22;24349;53.720;10.014;2023-02-28T02:41:59;2.90;99.90
38582;DHT22;24349;53.720;10.014;2023-02-28T02:44:31;2.80;99.90
38582;DHT22;24349;53.720;10.014;2023-02-28T02:47:08;2.80;99.90
38582;DHT22;24349;53.720;10.014;2023-02-28T02:49:36;2.90;99.90
38582;DHT22;24349;53.720;10.014;2023-02-28T02:52:07;2.90;99.90
38582;DHT22;24349;53.720;10.014;2023-02-28T02:54:43;2.90;99.90
38582;DHT22;24349;53.720;10.014;2023-02-28T02:57:15;2.80;99.90
38582;DHT22;24349;53.720;10.014;2023-02-28T02:59:42;2.80;99.90
38582;DHT22;24349;53.720;10.014;2023-02-28T03:02:12;2.90;99.90
38582;DHT22;24349;53.720;10.014;2023-02-28T03:04:51;3.00;99.90
38582;DHT22;24349;53.720;10.014;2023-02-28T03:07:18;2.90;99.90
38582;DHT22;24349;53.720;10.014;2023-02-28T03:09:54;3.00;99.90
38582;DHT22;24349;53.720;10.014;2023-02-28T03:12:21;3.00;99.90
38582;DHT22;24349;53.720;10.014;2023-02-28T03:17:23;2.80;99.90
38582;DHT22;24349;53.720;10.014;2023-02-28T03:25:37;2.80;99.90
38582;DHT22;24349;53.720;10.014;2023-02-28T03:31:00;2.70;99.90
38582;DHT22;24349;53.720;10.014;2023-02-28T03:33:40;2.70;99.90
38582;DHT22;24349;53.720;10.014;2023-02-28T03:36:12;2.70;99.90
38582;DHT22;24349;53.720;10.014;2023-02-28T03:39:02;2.60;99.90
38582;DHT22;24349;53.720;10.014;2023-02-28T03:41:36;2.40;99.90
38582;DHT22;24349;53.720;10.014;2023-02-28T03:44:09;2.20;99.90
38582;DHT22;24349;53.720;10.014;2023-02-28T03:49:32;2.10;99.90
38582;DHT22;24349;53.720;10.014;2023-02-28T03:52:02;2.20;99.90
38582;DHT22;24349;53.720;10.014;2023-02-28T03:54:32;2.20;99.90
38582;DHT22;24349;53.720;10.014;2023-02-28T03:57:07;2.10;99.90
38582;DHT22;24349;53.720;10.014;2023-02-28T03:59:56;2.10;99.90
38582;DHT22;24349;53.720;10.014;2023-02-28T04:02:24;2.10;99.90
38582;DHT22;24349;53.720;10.014;2023-02-28T04:04:50;2.10;99.90
38582;DHT22;24349;53.720;10.014;2023-02-28T04:07:16;2.00;99.90
38582;DHT22;24349;53.720;10.014;2023-02-28T04:09:42;1.90;99.90
38582;DHT22;24349;53.720;10.014;2023-02-28T04:12:08;1.80;99.90
38582;DHT22;24349;53.720;10.014;2023-02-28T04:14:34;1.70;99.90
38582;DHT22;24349;53.720;10.014;2023-02-28T04:16:59;1.70;99.90
38582;DHT22;24349;53.720;10.014;2023-02-28T04:19:25;1.60;99.90
38582;DHT22;24349;53.720;10.014;2023-02-28T04:21:52;1.60;99.90
38582;DHT22;24349;53.720;10.014;2023-02-28T04:24:20;1.50;99.90
38582;DHT22;24349;53.720;10.014;2023-02-28T04:26:49;1.50;99.90
38582;DHT22;24349;53.720;10.014;2023-02-28T04:29:29;1.40;99.90
38582;DHT22;24349;53.720;10.014;2023-02-28T04:31:55;1.30;99.90
38582;DHT22;24349;53.720;10.014;2023-02-28T04:34:23;1.30;99.90
38582;DHT22;24349;53.720;10.014;2023-02-28T04:36:49;1.20;99.90
38582;DHT22;24349;53.720;10.014;2023-02-28T04:39:16;1.10;99.90
38582;DHT22;24349;53.720;10.014;2023-02-28T04:41:44;1.10;99.90
38582;DHT22;24349;53.720;10.014;2023-02-28T04:44:10;1.00;99.90
38582;DHT22;24349;53.720;10.014;2023-02-28T04:46:35;1.10;99.90
38582;DHT22;24349;53.720;10.014;2023-02-28T04:49:01;1.00;99.90
38582;DHT22;24349;53.720;10.014;2023-02-28T04:51:26;1.00;99.90
38582;DHT22;24349;53.720;10.014;2023-02-28T04:53:52;0.90;99.90
38582;DHT22;24349;53.720;10.014;2023-02-28T04:56:18;0.80;99.90
38582;DHT22;24349;53.720;10.014;2023-02-28T04:58:44;0.80;99.90
38582;DHT22;24349;53.720;10.014;2023-02-28T05:01:25;0.90;99.90
38582;DHT22;24349;53.720;10.014;2023-02-28T05:03:52;0.90;99.90
38582;DHT22;24349;53.720;10.014;2023-02-28T05:06:19;0.90;99.90
38582;DHT22;24349;53.720;10.014;2023-02-28T05:08:46;0.80;99.90
38582;DHT22;24349;53.720;10.014;2023-02-28T05:11:20;0.60;99.90
38582;DHT22;24349;53.720;10.014;2023-02-28T05:13:47;0.60;99.90
38582;DHT22;24349;53.720;10.014;2023-02-28T05:16:13;0.60;99.90
38582;DHT22;24349;53.720;10.014;2023-02-28T05:18:39;0.50;99.90
38582;DHT22;24349;53.720;10.014;2023-02-28T05:21:05;0.60;99.90
38582;DHT22;24349;53.720;10.014;2023-02-28T05:23:31;0.60;99.90
38582;DHT22;24349;53.720;10.014;2023-02-28T05:25:57;0.60;99.90
38582;DHT22;24349;53.720;10.014;2023-02-28T05:28:23;0.50;99.90
38582;DHT22;24349;53.720;10.014;2023-02-28T05:30:49;0.40;99.90
38582;DHT22;24349;53.720;10.014;2023-02-28T05:33:14;0.30;99.90
38582;DHT22;24349;53.720;10.014;2023-02-28T05:35:41;0.30;99.90
38582;DHT22;24349;53.720;10.014;2023-02-28T05:38:08;0.20;99.90
38582;DHT22;24349;53.720;10.014;2023-02-28T05:40:34;0.10;99.90
38582;DHT22;24349;53.720;10.014;2023-02-28T05:43:00;0.10;99.90
38582;DHT22;24349;53.720;10.014;2023-02-28T05:45:25;0.10;99.90
38582;DHT22;24349;53.720;10.014;2023-02-28T05:47:55;0.10;99.90
38582;DHT22;24349;53.720;10.014;2023-02-28T05:50:21;0.10;99.90
38582;DHT22;24349;53.720;10.014;2023-02-28T05:52:53;0.00;99.90
38582;DHT22;24349;53.720;10.014;2023-02-28T05:55:18;-0.10;99.90
38582;DHT22;24349;53.720;10.014;2023-02-28T05:57:44;-0.20;99.90
38582;DHT22;24349;53.720;10.014;2023-02-28T06:00:11;-0.30;99.90
38582;DHT22;24349;53.720;10.014;2023-02-28T06:02:38;-0.20;99.90
38582;DHT22;24349;53.720;10.014;2023-02-28T06:05:05;-0.20;99.90
38582;DHT22;24349;53.720;10.014;2023-02-28T06:07:32;-0.10;99.90
38582;DHT22;24349;53.720;10.014;2023-02-28T06:09:58;0.00;99.90
38582;DHT22;24349;53.720;10.014;2023-02-28T06:12:23;0.00;99.90
38582;DHT22;24349;53.720;10.014;2023-02-28T06:14:49;0.00;99.90
38582;DHT22;24349;53.720;10.014;2023-02-28T06:17:14;-0.10;99.90
38582;DHT22;24349;53.720;10.014;2023-02-28T06:19:40;-0.10;99.90
38582;DHT22;24349;53.720;10.014;2023-02-28T06:22:06;-0.10;99.90
38582;DHT22;24349;53.720;10.014;2023-02-28T06:24:32;-0.10;99.90
38582;DHT22;24349;53.720;10.014;2023-02-28T06:26:58;-0.10;99.90
38582;DHT22;24349;53.720;10.014;2023-02-28T06:29:33;-0.10;99.90
38582;DHT22;24349;53.720;10.014;2023-02-28T06:31:59;0.00;99.90
38582;DHT22;24349;53.720;10.014;2023-02-28T06:34:25;-0.10;99.90
38582;DHT22;24349;53.720;10.014;2023-02-28T06:36:51;0.00;99.90
38582;DHT22;24349;53.720;10.014;2023-02-28T06:39:17;0.30;99.90
38582;DHT22;24349;53.720;10.014;2023-02-28T06:41:43;1.00;99.90
38582;DHT22;24349;53.720;10.014;2023-02-28T06:44:16;1.80;99.90
38582;DHT22;24349;53.720;10.014;2023-02-28T06:46:44;2.80;99.90
38582;DHT22;24349;53.720;10.014;2023-02-28T06:49:11;3.40;99.90
38582;DHT22;24349;53.720;10.014;2023-02-28T06:51:40;3.90;99.90
38582;DHT22;24349;53.720;10.014;2023-02-28T06:54:07;4.40;1.00
38582;DHT22;24349;53.720;10.014;2023-02-28T06:56:35;4.70;99.90
38582;DHT22;24349;53.720;10.014;2023-02-28T06:59:02;5.20;57.20
38582;DHT22;24349;53.720;10.014;2023-02-28T07:01:27;5.20;99.90
38582;DHT22;24349;53.720;10.014;2023-02-28T07:03:54;5.40;99.90
38582;DHT22;24349;53.720;10.014;2023-02-28T07:06:21;5.30;99.90
38582;DHT22;24349;53.720;10.014;2023-02-28T07:08:49;5.50;99.90
38582;DHT22;24349;53.720;10.014;2023-02-28T07:11:15;6.40;1.00
38582;DHT22;24349;53.720;10.014;2023-02-28T07:13:40;7.20;99.90
38582;DHT22;24349;53.720;10.014;2023-02-28T07:16:09;8.00;1.00
38582;DHT22;24349;53.720;10.014;2023-02-28T07:18:35;8.50;99.90
38582;DHT22;24349;53.720;10.014;2023-02-28T07:21:06;8.70;43.10
38582;DHT22;24349;53.720;10.014;2023-02-28T07:23:33;9.30;1.00
38582;DHT22;24349;53.720;10.014;2023-02-28T07:25:58;10.20;1.00
38582;DHT22;24349;53.720;10.014;2023-02-28T07:28:24;10.40;99.90
38582;DHT22;24349;53.720;10.014;2023-02-28T07:30:50;10.40;1.00
38582;DHT22;24349;53.720;10.014;2023-02-28T07:33:16;10.40;1.00
38582;DHT22;24349;53.720;10.014;2023-02-28T07:35:41;10.80;99.90
38582;DHT22;24349;53.720;10.014;2023-02-28T07:38:07;11.00;99.90
38582;DHT22;24349;53.720;10.014;2023-02-28T07:40:34;11.50;99.90
38582;DHT22;24349;53.720;10.014;2023-02-28T07:43:00;11.90;99.90
38582;DHT22;24349;53.720;10.014;2023-02-28T07:45:27;12.00;99.90
38582;DHT22;24349;53.720;10.014;2023-02-28T07:47:54;12.50;99.90
38582;DHT22;24349;53.720;10.014;2023-02-28T07:50:19;12.30;1.00
38582;DHT22;24349;53.720;10.014;2023-02-28T07:52:45;11.90;1.00
38582;DHT22;24349;53.720;10.014;2023-02-28T07:55:11;12.40;75.60
38582;DHT22;24349;53.720;10.014;2023-02-28T07:57:37;13.20;99.90
38582;DHT22;24349;53.720;10.014;2023-02-28T08:00:07;13.50;99.90
38582;DHT22;24349;53.720;10.014;2023-02-28T08:02:34;13.70;99.90
38582;DHT22;24349;53.720;10.014;2023-02-28T08:05:00;12.80;99.80
38582;DHT22;24349;53.720;10.014;2023-02-28T08:07:26;11.30;1.00
38582;DHT22;24349;53.720;10.014;2023-02-28T08:09:52;10.10;1.00
38582;DHT22;24349;53.720;10.014;2023-02-28T08:12:17;10.00;1.00
38582;DHT22;24349;53.720;10.014;2023-02-28T08:14:43;9.70;1.00
38582;DHT22;24349;53.720;10.014;2023-02-28T08:17:09;9.90;1.00
38582;DHT22;24349;53.720;10.014;2023-02-28T08:19:35;10.70;1.00
38582;DHT22;24349;53.720;10.014;2023-02-28T08:22:01;11.00;1.00
38582;DHT22;24349;53.720;10.014;2023-02-28T08:24:27;11.80;99.90
38582;DHT22;24349;53.720;10.014;2023-02-28T08:26:52;11.40;99.90
38582;DHT22;24349;53.720;10.014;2023-02-28T08:29:18;11.50;99.90
38582;DHT22;24349;53.720;10.014;2023-02-28T08:31:44;12.20;99.90
38582;DHT22;24349;53.720;10.014;2023-02-28T08:34:11;13.10;99.90
38582;DHT22;24349;53.720;10.014;2023-02-28T08:36:38;11.90;99.90
38582;DHT22;24349;53.720;10.014;2023-02-28T08:39:04;11.40;99.90
38582;DHT22;24349;53.720;10.014;2023-02-28T08:41:30;12.00;99.90
38582;DHT22;24349;53.720;10.014;2023-02-28T08:43:56;12.10;99.90
38582;DHT22;24349;53.720;10.014;2023-02-28T08:46:24;10.90;99.90
38582;DHT22;24349;53.720;10.014;2023-02-28T08:48:55;10.90;99.90
38582;DHT22;24349;53.720;10.014;2023-02-28T08:51:21;11.40;99.90
38582;DHT22;24349;53.720;10.014;2023-02-28T08:53:57;11.00;99.90
38582;DHT22;24349;53.720;10.014;2023-02-28T08:56:23;10.70;99.90
38582;DHT22;24349;53.720;10.014;2023-02-28T08:58:49;11.00;99.90
38582;DHT22;24349;53.720;10.014;2023-02-28T09:01:21;11.20;99.90
38582;DHT22;24349;53.720;10.014;2023-02-28T09:03:49;11.10;99.90
38582;DHT22;24349;53.720;10.014;2023-02-28T09:06:16;11.30;99.90
38582;DHT22;24349;53.720;10.014;2023-02-28T09:08:42;11.20;99.90
38582;DHT22;24349;53.720;10.014;2023-02-28T09:11:08;11.80;99.90
38582;DHT22;24349;53.720;10.014;2023-02-28T09:13:34;12.70;99.90
38582;DHT22;24349;53.720;10.014;2023-02-28T09:16:01;12.30;99.90
38582;DHT22;24349;53.720;10.014;2023-02-28T09:18:28;12.70;99.90
38582;DHT22;24349;53.720;10.014;2023-02-28T09:20:54;12.60;99.90
38582;DHT22;24349;53.720;10.014;2023-02-28T09:23:20;12.90;99.90
38582;DHT22;24349;53.720;10.014;2023-02-28T09:25:48;13.10;99.90
38582;DHT22;24349;53.720;10.014;2023-02-28T09:28:14;12.50;99.90
38582;DHT22;24349;53.720;10.014;2023-02-28T09:30:49;12.80;99.90
38582;DHT22;24349;53.720;10.014;2023-02-28T09:33:15;12.50;99.90
38582;DHT22;24349;53.720;10.014;2023-02-28T09:35:41;12.50;99.90
38582;DHT22;24349;53.720;10.014;2023-02-28T09:38:09;12.80;99.90
38582;DHT22;24349;53.720;10.014;2023-02-28T09:40:45;13.30;1.00
38582;DHT22;24349;53.720;10.014;2023-02-28T09:43:14;14.00;99.90
38582;DHT22;24349;53.720;10.014;2023-02-28T09:45:42;14.60;1.00
38582;DHT22;24349;53.720;10.014;2023-02-28T09:48:17;15.60;1.00
38582;DHT22;24349;53.720;10.014;2023-02-28T09:50:55;15.40;99.90
38582;DHT22;24349;53.720;10.014;2023-02-28T09:53:28;15.40;1.00
38582;DHT22;24349;53.720;10.014;2023-02-28T10:01:06;14.50;1.00
38582;DHT22;24349;53.720;10.014;2023-02-28T10:06:36;16.10;99.90
38582;DHT22;24349;53.720;10.014;2023-02-28T10:09:14;17.00;1.00
38582;DHT22;24349;53.720;10.014;2023-02-28T10:11:42;17.80;1.00
38582;DHT22;24349;53.720;10.014;2023-02-28T10:14:18;16.90;99.90
38582;DHT22;24349;53.720;10.014;2023-02-28T10:16:48;17.00;1.00
38582;DHT22;24349;53.720;10.014;2023-02-28T10:21:58;16.40;99.90
38582;DHT22;24349;53.720;10.014;2023-02-28T10:24:50;17.40;99.90
38582;DHT22;24349;53.720;10.014;2023-02-28T10:27:21;18.20;1.00
38582;DHT22;24349;53.720;10.014;2023-02-28T10:29:49;18.80;1.00
38582;DHT22;24349;53.720;10.014;2023-02-28T10:32:18;19.20;1.00
38582;DHT22;24349;53.720;10.014;2023-02-28T10:34:44;19.50;1.00
38582;DHT22;24349;53.720;10.014;2023-02-28T10:37:11;19.90;99.90
38582;DHT22;24349;53.720;10.014;2023-02-28T10:39:45;19.30;1.00
38582;DHT22;24349;53.720;10.014;2023-02-28T10:42:28;19.00;99.90
38582;DHT22;24349;53.720;10.014;2023-02-28T10:45:10;18.40;99.90
38582;DHT22;24349;53.720;10.014;2023-02-28T10:47:53;18.00;99.90
38582;DHT22;24349;53.720;10.014;2023-02-28T10:50:44;17.60;99.90
38582;DHT22;24349;53.720;10.014;2023-02-28T10:56:05;18.10;99.90
38582;DHT22;24349;53.720;10.014;2023-02-28T10:58:55;18.40;99.90
38582;DHT22;24349;53.720;10.014;2023-02-28T11:01:22;18.90;99.90
38582;DHT22;24349;53.720;10.014;2023-02-28T11:03:49;19.30;1.00
38582;DHT22;24349;53.720;10.014;2023-02-28T11:06:21;19.20;1.00
38582;DHT22;24349;53.720;10.014;2023-02-28T11:08:53;19.20;1.00
38582;DHT22;24349;53.720;10.014;2023-02-28T11:11:20;18.80;1.00
38582;DHT22;24349;53.720;10.014;2023-02-28T11:13:47;19.30;1.00
38582;DHT22;24349;53.720;10.014;2023-02-28T11:16:15;18.20;99.90
38582;DHT22;24349;53.720;10.014;2023-02-28T11:18:46;18.00;99.90
38582;DHT22;24349;53.720;10.014;2023-02-28T11:21:36;18.20;99.90
38582;DHT22;24349;53.720;10.014;2023-02-28T11:26:43;18.40;99.90
38582;DHT22;24349;53.720;10.014;2023-02-28T11:29:19;18.80;99.90
38582;DHT22;24349;53.720;10.014;2023-02-28T11:34:38;18.90;99.90
38582;DHT22;24349;53.720;10.014;2023-02-28T11:37:09;18.80;99.90
38582;DHT22;24349;53.720;10.014;2023-02-28T11:39:36;18.10;99.90
38582;DHT22;24349;53.720;10.014;2023-02-28T11:54:00;17.60;99.90
38582;DHT22;24349;53.720;10.014;2023-02-28T11:56:38;17.90;99.90
38582;DHT22;24349;53.720;10.014;2023-02-28T12:02:05;17.40;99.90
38582;DHT22;24349;53.720;10.014;2023-02-28T12:13:14;18.10;99.90
38582;DHT22;24349;53.720;10.014;2023-02-28T12:26:42;17.40;99.90
38582;DHT22;24349;53.720;10.014;2023-02-28T12:29:16;17.80;99.90
38582;DHT22;24349;53.720;10.014;2023-02-28T12:31:51;18.00;99.90
38582;DHT22;24349;53.720;10.014;2023-02-28T12:34:21;17.40;99.90
38582;DHT22;24349;53.720;10.014;2023-02-28T12:36:49;16.90;99.90
38582;DHT22;24349;53.720;10.014;2023-02-28T12:42:03;16.10;99.90
38582;DHT22;24349;53.720;10.014;2023-02-28T12:44:45;16.40;99.90
38582;DHT22;24349;53.720;10.014;2023-02-28T12:47:16;16.90;99.90
38582;DHT22;24349;53.720;10.014;2023-02-28T12:49:49;16.70;99.90
38582;DHT22;24349;53.720;10.014;2023-02-28T12:52:25;16.70;99.90
38582;DHT22;24349;53.720;10.014;2023-02-28T12:54:52;16.10;99.90
38582;DHT22;24349;53.720;10.014;2023-02-28T13:00:01;16.30;99.90
38582;DHT22;24349;53.720;10.014;2023-02-28T13:10:48;15.80;99.90
38582;DHT22;24349;53.720;10.014;2023-02-28T13:13:25;15.90;99.90
38582;DHT22;24349;53.720;10.014;2023-02-28T13:16:08;16.20;99.90
38582;DHT22;24349;53.720;10.014;2023-02-28T13:18:41;16.00;99.90
38582;DHT22;24349;53.720;10.014;2023-02-28T13:21:28;15.50;99.90
38582;DHT22;24349;53.720;10.014;2023-02-28T13:27:38;14.60;99.90
38582;DHT22;24349;53.720;10.014;2023-02-28T13:29:40;14.60;99.90
38582;DHT22;24349;53.720;10.014;2023-02-28T13:34:34;14.20;99.90
38582;DHT22;24349;53.720;10.014;2023-02-28T13:42:36;14.10;99.90
38582;DHT22;24349;53.720;10.014;2023-02-28T13:47:45;13.70;99.90
38582;DHT22;24349;53.720;10.014;2023-02-28T13:55:48;14.20;99.90
38582;DHT22;24349;53.720;10.014;2023-02-28T14:06:57;14.00;99.90
38582;DHT22;24349;53.720;10.014;2023-02-28T14:09:40;13.90;99.90
38582;DHT22;24349;53.720;10.014;2023-02-28T14:18:22;13.10;99.90
38582;DHT22;24349;53.720;10.014;2023-02-28T14:20:51;12.60;99.90
38582;DHT22;24349;53.720;10.014;2023-02-28T14:29:08;12.80;99.90
38582;DHT22;24349;53.720;10.014;2023-02-28T14:32:01;12.70;99.90
38582;DHT22;24349;53.720;10.014;2023-02-28T14:37:05;12.60;99.90
38582;DHT22;24349;53.720;10.014;2023-02-28T14:39:33;12.30;99.90
38582;DHT22;24349;53.720;10.014;2023-02-28T14:42:00;12.30;99.90
38582;DHT22;24349;53.720;10.014;2023-02-28T14:44:30;12.20;99.90
38582;DHT22;24349;53.720;10.014;2023-02-28T14:46:57;11.90;99.90
38582;DHT22;24349;53.720;10.014;2023-02-28T14:49:28;11.80;99.90
38582;DHT22;24349;53.720;10.014;2023-02-28T14:54:36;11.20;99.90
38582;DHT22;24349;53.720;10.014;2023-02-28T14:57:03;11.10;99.90
38582;DHT22;24349;53.720;10.014;2023-02-28T14:59:34;11.00;99.90
38582;DHT22;24349;53.720;10.014;2023-02-28T15:02:21;10.70;99.90
38582;DHT22;24349;53.720;10.014;2023-02-28T15:05:39;10.50;99.90
38582;DHT22;24349;53.720;10.014;2023-02-28T15:07:47;10.40;99.90
38582;DHT22;24349;53.720;10.014;2023-02-28T15:13:00;10.00;99.90
38582;DHT22;24349;53.720;10.014;2023-02-28T15:24:11;10.00;99.90
38582;DHT22;24349;53.720;10.014;2023-02-28T15:26:41;10.40;99.90
38582;DHT22;24349;53.720;10.014;2023-02-28T15:29:16;10.70;99.90
38582;DHT22;24349;53.720;10.014;2023-02-28T15:32:00;10.90;99.90
38582;DHT22;24349;53.720;10.014;2023-02-28T15:34:44;11.50;99.90
38582;DHT22;24349;53.720;10.014;2023-02-28T15:39:57;12.20;99.90
38582;DHT22;24349;53.720;10.014;2023-02-28T15:42:28;12.50;99.90
38582;DHT22;24349;53.720;10.014;2023-02-28T15:44:54;12.70;99.90
38582;DHT22;24349;53.720;10.014;2023-02-28T15:47:22;12.70;99.90
38582;DHT22;24349;53.720;10.014;2023-02-28T15:49:54;12.70;99.90
38582;DHT22;24349;53.720;10.014;2023-02-28T15:52:41;12.80;99.90
38582;DHT22;24349;53.720;10.014;2023-02-28T15:57:39;12.40;99.90
38582;DHT22;24349;53.720;10.014;2023-02-28T16:00:11;11.90;99.90
38582;DHT22;24349;53.720;10.014;2023-02-28T16:02:38;11.50;99.90
38582;DHT22;24349;53.720;10.014;2023-02-28T16:07:38;10.50;99.90
38582;DHT22;24349;53.720;10.014;2023-02-28T16:10:05;10.20;99.90
38582;DHT22;24349;53.720;10.014;2023-02-28T16:12:33;9.80;99.90
38582;DHT22;24349;53.720;10.014;2023-02-28T16:15:02;9.60;99.90
38582;DHT22;24349;53.720;10.014;2023-02-28T16:17:33;9.40;99.90
38582;DHT22;24349;53.720;10.014;2023-02-28T16:20:00;9.40;99.90
38582;DHT22;24349;53.720;10.014;2023-02-28T16:22:25;9.10;99.90
38582;DHT22;24349;53.720;10.014;2023-02-28T16:24:51;8.90;99.90
38582;DHT22;24349;53.720;10.014;2023-02-28T16:27:29;8.70;99.90
38582;DHT22;24349;53.720;10.014;2023-02-28T16:29:55;8.60;99.90
38582;DHT22;24349;53.720;10.014;2023-02-28T16:32:21;8.50;99.90
38582;DHT22;24349;53.720;10.014;2023-02-28T16:34:46;8.50;99.90
38582;DHT22;24349;53.720;10.014;2023-02-28T16:37:17;8.50;99.90
38582;DHT22;24349;53.720;10.014;2023-02-28T16:39:44;8.50;99.90
38582;DHT22;24349;53.720;10.014;2023-02-28T16:42:25;8.30;99.90
38582;DHT22;24349;53.720;10.014;2023-02-28T16:44:52;8.40;99.90
38582;DHT22;24349;53.720;10.014;2023-02-28T16:47:18;8.30;99.90
38582;DHT22;24349;53.720;10.014;2023-02-28T16:49:43;8.10;99.90
38582;DHT22;24349;53.720;10.014;2023-02-28T16:52:10;8.00;99.90
38582;DHT22;24349;53.720;10.014;2023-02-28T16:54:37;7.80;99.90
38582;DHT22;24349;53.720;10.014;2023-02-28T16:57:04;7.60;99.90
38582;DHT22;24349;53.720;10.014;2023-02-28T16:59:30;7.60;99.90
38582;DHT22;24349;53.720;10.014;2023-02-28T17:01:56;7.50;99.90
38582;DHT22;24349;53.720;10.014;2023-02-28T17:04:26;7.40;99.90
38582;DHT22;24349;53.720;10.014;2023-02-28T17:06:52;7.40;99.90
38582;DHT22;24349;53.720;10.014;2023-02-28T17:09:20;7.40;99.90
38582;DHT22;24349;53.720;10.014;2023-02-28T17:11:47;7.20;99.90
38582;DHT22;24349;53.720;10.014;2023-02-28T17:14:13;7.10;99.90
38582;DHT22;24349;53.720;10.014;2023-02-28T17:16:39;7.00;99.90
38582;DHT22;24349;53.720;10.014;2023-02-28T17:19:09;6.90;99.90
38582;DHT22;24349;53.720;10.014;2023-02-28T17:21:36;6.70;99.90
38582;DHT22;24349;53.720;10.014;2023-02-28T17:24:02;6.50;99.90
38582;DHT22;24349;53.720;10.014;2023-02-28T17:26:28;6.40;99.90
38582;DHT22;24349;53.720;10.014;2023-02-28T17:28:56;6.30;99.90
38582;DHT22;24349;53.720;10.014;2023-02-28T17:31:26;6.20;99.90
38582;DHT22;24349;53.720;10.014;2023-02-28T17:33:53;6.20;99.90
38582;DHT22;24349;53.720;10.014;2023-02-28T17:36:24;6.00;99.90
38582;DHT22;24349;53.720;10.014;2023-02-28T17:38:51;5.90;99.90
38582;DHT22;24349;53.720;10.014;2023-02-28T17:41:18;5.70;99.90
38582;DHT22;24349;53.720;10.014;2023-02-28T17:43:44;5.60;99.90
38582;DHT22;24349;53.720;10.014;2023-02-28T17:46:18;5.50;99.90
38582;DHT22;24349;53.720;10.014;2023-02-28T17:48:46;5.40;99.90
38582;DHT22;24349;53.720;10.014;2023-02-28T17:51:13;5.40;99.90
38582;DHT22;24349;53.720;10.014;2023-02-28T17:53:39;5.30;99.90
38582;DHT22;24349;53.720;10.014;2023-02-28T17:56:09;5.20;99.90
38582;DHT22;24349;53.720;10.014;2023-02-28T17:58:36;5.10;99.90
38582;DHT22;24349;53.720;10.014;2023-02-28T18:01:01;5.00;99.90
38582;DHT22;24349;53.720;10.014;2023-02-28T18:03:27;4.80;99.90
38582;DHT22;24349;53.720;10.014;2023-02-28T18:05:53;4.60;1.00
38582;DHT22;24349;53.720;10.014;2023-02-28T18:08:19;4.40;1.00
38582;DHT22;24349;53.720;10.014;2023-02-28T18:10:45;4.40;99.90